Alpha, Washington
Current Conditions -  °F | °C
As of 3:15 PM on Thursday 27 Nov 2014 (Local Time) from KCLS Reporting Station
Overcast Overcast  
Wind Chill: 13°   Ceiling: 2900
Heat Index: 13°   Visibility: 9mi
Dew Point: 12°   Wind: 12mph
Humidity: 94%   Direction: 170°S
Pressure: 29.83"   Gusts: 20mph
Location:  46.5995°N, 122.665°W
Report Text: KCLS 272315Z AUTO 17010G17KT 9SM FEW012 OVC029 13/12 A2983 RMK AO2
Loading
Personal Weather Stations






























Interactive Weather Map New forecast layout! Learn more

10-Day Weather Forecast

Advertisements
Track Severe Weather on mobile